Time;durP1;ratioP1;P1;durP2;ratioP2;P2;SDS_P1;SDS_P2;PMS_P1;PMS_P2;Temp;Humidity;BMP_temperature;BMP_pressure;BME280_temperature;BME280_humidity;BME280_pressure;Samples;Min_cycle;Max_cycle;Signal;HPM_P1;HPM_P2
2023/05/26 00:02:06;;;;;;;3.25;1.70;;;;;;;;;;5004576;28;20034;-58
2023/05/26 00:04:31;;;;;;;4.50;1.73;;;;;;;;;;5005148;28;20062;-60
2023/05/26 00:06:58;;;;;;;3.17;2.10;;;;;;;;;;5007577;28;20100;-59
2023/05/26 00:09:24;;;;;;;2.63;1.80;;;;;;;;;;5005394;28;20296;-60
2023/05/26 00:11:49;;;;;;;3.50;1.70;;;;;;;;;;5005612;28;20034;-58
2023/05/26 00:14:15;;;;;;;3.77;2.20;;;;;;;;;;5003472;28;20057;-60
2023/05/26 00:16:41;;;;;;;3.47;1.77;;;;;;;;;;5005452;28;20269;-58
2023/05/26 00:19:07;;;;;;;2.95;1.70;;;;;;;;;;5004877;28;20431;-59
2023/05/26 00:21:32;;;;;;;2.65;1.45;;;;;;;;;;5005365;28;20195;-59
2023/05/26 00:23:58;;;;;;;3.25;1.75;;;;;;;;;;5005327;28;21618;-60
2023/05/26 00:26:23;;;;;;;3.33;1.60;;;;;;;;;;5005563;28;20487;-58
2023/05/26 00:28:48;;;;;;;2.47;1.50;;;;;;;;;;4999367;28;20420;-60
2023/05/26 00:31:13;;;;;;;1.92;1.40;;;;;;;;;;5003180;28;20824;-61
2023/05/26 00:33:39;;;;;;;2.50;1.60;;;;;;;;;;5005294;28;20030;-60
2023/05/26 00:36:04;;;;;;;2.70;1.40;;;;;;;;;;5004929;28;20281;-57
2023/05/26 00:38:29;;;;;;;1.95;1.40;;;;;;;;;;5005721;28;20285;-60
2023/05/26 00:40:54;;;;;;;2.17;1.50;;;;;;;;;;5005435;28;20172;-58
2023/05/26 00:43:20;;;;;;;2.33;1.38;;;;;;;;;;5005003;28;20292;-60
2023/05/26 00:45:45;;;;;;;3.77;1.60;;;;;;;;;;5005063;28;20141;-60
2023/05/26 00:48:10;;;;;;;2.43;1.40;;;;;;;;;;5003345;28;20527;-60
2023/05/26 00:50:35;;;;;;;2.90;1.57;;;;;;;;;;5003775;28;20441;-60
2023/05/26 00:53:01;;;;;;;3.55;1.30;;;;;;;;;;5005994;28;20533;-60
2023/05/26 00:55:26;;;;;;;2.60;1.63;;;;;;;;;;5005320;28;20034;-60
2023/05/26 00:57:51;;;;;;;2.00;1.25;;;;;;;;;;5003837;28;20281;-57
2023/05/26 01:00:17;;;;;;;2.17;1.07;;;;;;;;;;5004633;28;20042;-59
2023/05/26 01:02:44;;;;;;;2.22;1.20;;;;;;;;;;5004342;28;20292;-60
2023/05/26 01:05:10;;;;;;;3.40;1.40;;;;;;;;;;5002365;28;20187;-60
2023/05/26 01:07:36;;;;;;;3.23;1.50;;;;;;;;;;5003319;28;20093;-58
2023/05/26 01:10:01;;;;;;;3.03;1.27;;;;;;;;;;5016663;28;20644;-60
2023/05/26 01:12:28;;;;;;;3.78;1.30;;;;;;;;;;5004827;28;20079;-60
2023/05/26 01:15:01;;;;;;;2.33;1.15;;;;;;;;;;5007070;28;20021;-59
2023/05/26 01:17:29;;;;;;;2.22;1.20;;;;;;;;;;5023652;28;20046;-60
2023/05/26 01:19:57;;;;;;;2.47;1.20;;;;;;;;;;5007652;28;20032;-60
2023/05/26 01:22:22;;;;;;;2.83;1.63;;;;;;;;;;5007118;28;20034;-60
2023/05/26 01:25:14;;;;;;;2.37;1.53;;;;;;;;;;5023125;28;20188;-59
2023/05/26 01:27:39;;;;;;;2.25;1.20;;;;;;;;;;5003994;28;20037;-60
2023/05/26 01:30:05;;;;;;;2.20;1.10;;;;;;;;;;4997893;28;20104;-61
2023/05/26 01:32:30;;;;;;;2.10;1.40;;;;;;;;;;4996769;28;20125;-62
2023/05/26 01:34:55;;;;;;;1.70;1.10;;;;;;;;;;5005573;28;20034;-59
2023/05/26 01:37:21;;;;;;;2.27;1.40;;;;;;;;;;5006527;28;20039;-60
2023/05/26 01:39:46;;;;;;;4.00;1.30;;;;;;;;;;5000972;28;20270;-61
2023/05/26 01:42:22;;;;;;;2.33;1.60;;;;;;;;;;5004743;28;20038;-60
2023/05/26 01:44:50;;;;;;;3.92;1.50;;;;;;;;;;4999148;28;20056;-57
2023/05/26 01:47:15;;;;;;;2.40;1.33;;;;;;;;;;5008485;28;20137;-61
2023/05/26 01:49:42;;;;;;;3.43;1.50;;;;;;;;;;4994085;28;20250;-61
2023/05/26 01:52:08;;;;;;;3.53;1.70;;;;;;;;;;5006694;28;20060;-61
2023/05/26 01:54:33;;;;;;;2.55;1.40;;;;;;;;;;5022269;28;20026;-61
2023/05/26 01:56:59;;;;;;;2.88;1.42;;;;;;;;;;5004625;28;20038;-61
2023/05/26 01:59:24;;;;;;;3.17;1.73;;;;;;;;;;5006869;28;20157;-61
2023/05/26 02:01:49;;;;;;;2.40;1.30;;;;;;;;;;5005259;28;20856;-59
2023/05/26 02:04:15;;;;;;;3.70;1.33;;;;;;;;;;5005951;28;20080;-59
2023/05/26 02:06:40;;;;;;;2.17;1.50;;;;;;;;;;4997176;28;20277;-60
2023/05/26 02:09:05;;;;;;;3.20;1.30;;;;;;;;;;4999224;28;20125;-60
2023/05/26 02:11:31;;;;;;;2.45;1.45;;;;;;;;;;5005046;28;20273;-61
2023/05/26 02:13:57;;;;;;;2.60;1.55;;;;;;;;;;5021183;28;20084;-60
2023/05/26 02:16:22;;;;;;;2.30;1.50;;;;;;;;;;5002450;28;20479;-61
2023/05/26 02:18:48;;;;;;;2.55;1.40;;;;;;;;;;5001506;28;20795;-59
2023/05/26 02:21:13;;;;;;;2.95;1.50;;;;;;;;;;5005626;28;20581;-59
2023/05/26 02:23:38;;;;;;;4.15;1.85;;;;;;;;;;5005983;28;20453;-57
2023/05/26 02:26:04;;;;;;;2.30;1.48;;;;;;;;;;5016336;28;20043;-60
2023/05/26 02:28:29;;;;;;;1.80;1.60;;;;;;;;;;4995501;28;20152;-59
2023/05/26 02:30:54;;;;;;;3.78;1.55;;;;;;;;;;4999337;28;20034;-59
2023/05/26 02:33:20;;;;;;;3.90;1.53;;;;;;;;;;5000342;28;20026;-60
2023/05/26 02:35:45;;;;;;;4.43;1.58;;;;;;;;;;5008645;28;20320;-61
2023/05/26 02:38:10;;;;;;;4.20;2.00;;;;;;;;;;5021106;28;20082;-60
2023/05/26 02:40:36;;;;;;;4.43;1.83;;;;;;;;;;5005724;28;20320;-60
2023/05/26 02:43:01;;;;;;;3.77;1.60;;;;;;;;;;5007065;28;20095;-59
2023/05/26 02:45:26;;;;;;;3.83;1.83;;;;;;;;;;4997102;28;20131;-59
2023/05/26 02:47:52;;;;;;;3.53;2.00;;;;;;;;;;5007235;28;20403;-60
2023/05/26 02:50:17;;;;;;;3.33;1.90;;;;;;;;;;5001311;28;20046;-60
2023/05/26 02:52:43;;;;;;;2.08;1.52;;;;;;;;;;5001681;28;20285;-60
2023/05/26 02:55:10;;;;;;;6.47;2.10;;;;;;;;;;5003094;28;20038;-61
2023/05/26 02:57:35;;;;;;;3.13;1.70;;;;;;;;;;5001627;28;20030;-61
2023/05/26 03:00:00;;;;;;;2.77;1.60;;;;;;;;;;5003957;28;20033;-60
2023/05/26 03:02:25;;;;;;;4.13;1.67;;;;;;;;;;5020091;28;20292;-61
2023/05/26 03:04:51;;;;;;;2.67;2.07;;;;;;;;;;4999129;28;20305;-59
2023/05/26 03:07:16;;;;;;;2.70;1.60;;;;;;;;;;5005887;28;20136;-63
2023/05/26 03:09:41;;;;;;;3.00;1.40;;;;;;;;;;5002238;28;20133;-61
2023/05/26 03:12:06;;;;;;;2.90;1.70;;;;;;;;;;4996028;28;20122;-60
2023/05/26 03:14:33;;;;;;;1.92;1.35;;;;;;;;;;5005475;28;20065;-61
2023/05/26 03:16:59;;;;;;;3.35;1.63;;;;;;;;;;5015626;28;20441;-59
2023/05/26 03:19:24;;;;;;;2.45;1.65;;;;;;;;;;4998529;28;20032;-59
2023/05/26 03:21:50;;;;;;;3.63;1.80;;;;;;;;;;5004818;28;20044;-59
2023/05/26 03:24:15;;;;;;;2.58;1.92;;;;;;;;;;5006108;28;20312;-60
2023/05/26 03:26:40;;;;;;;4.22;1.67;;;;;;;;;;5006033;28;20024;-61
2023/05/26 03:29:06;;;;;;;2.53;1.90;;;;;;;;;;5005722;28;20092;-60
2023/05/26 03:31:31;;;;;;;4.10;1.77;;;;;;;;;;5006836;28;20335;-62
2023/05/26 03:33:56;;;;;;;3.33;1.80;;;;;;;;;;5005738;28;20725;-59
2023/05/26 03:36:21;;;;;;;3.67;1.73;;;;;;;;;;5003163;28;20484;-61
2023/05/26 03:38:47;;;;;;;3.45;1.77;;;;;;;;;;5005954;28;20678;-61
2023/05/26 03:41:12;;;;;;;3.40;2.00;;;;;;;;;;5006639;28;20037;-61
2023/05/26 03:43:37;;;;;;;4.13;2.25;;;;;;;;;;5004348;28;20045;-61
2023/05/26 03:46:02;;;;;;;2.60;1.83;;;;;;;;;;5005821;28;20117;-61
2023/05/26 03:48:28;;;;;;;2.90;1.93;;;;;;;;;;5004751;28;20217;-60
2023/05/26 03:50:53;;;;;;;3.83;2.13;;;;;;;;;;5006106;28;20344;-61
2023/05/26 03:53:18;;;;;;;3.63;2.20;;;;;;;;;;5000562;28;20042;-61
2023/05/26 03:55:43;;;;;;;3.50;2.20;;;;;;;;;;4998238;28;20280;-61
2023/05/26 03:58:09;;;;;;;3.80;2.20;;;;;;;;;;5003864;28;20384;-59
2023/05/26 04:00:34;;;;;;;4.65;2.15;;;;;;;;;;5000618;28;20355;-60
2023/05/26 04:03:00;;;;;;;2.63;1.93;;;;;;;;;;5003801;28;20503;-60
2023/05/26 04:05:25;;;;;;;2.85;1.77;;;;;;;;;;5004869;28;20304;-58
2023/05/26 04:07:50;;;;;;;3.35;2.08;;;;;;;;;;5006630;28;20372;-59
2023/05/26 04:10:16;;;;;;;5.07;2.13;;;;;;;;;;5005455;28;20053;-61
2023/05/26 04:12:41;;;;;;;3.43;2.03;;;;;;;;;;5005965;28;20171;-61
2023/05/26 04:15:08;;;;;;;6.22;2.45;;;;;;;;;;5005044;28;20042;-60
2023/05/26 04:17:33;;;;;;;3.08;2.22;;;;;;;;;;5003464;28;20404;-59
2023/05/26 04:19:59;;;;;;;3.63;2.40;;;;;;;;;;5005415;28;20037;-61
2023/05/26 04:22:24;;;;;;;2.78;2.13;;;;;;;;;;5005049;28;20832;-60
2023/05/26 04:24:49;;;;;;;4.25;2.22;;;;;;;;;;5004802;28;20420;-61
2023/05/26 04:27:15;;;;;;;3.40;2.38;;;;;;;;;;5004753;28;20419;-62
2023/05/26 04:29:40;;;;;;;3.73;2.10;;;;;;;;;;5009938;28;20062;-60
2023/05/26 04:32:08;;;;;;;2.47;1.90;;;;;;;;;;5005410;28;20332;-61
2023/05/26 04:34:33;;;;;;;4.10;2.20;;;;;;;;;;5003300;28;20092;-61
2023/05/26 04:37:04;;;;;;;3.80;2.63;;;;;;;;;;5003806;28;20046;-59
2023/05/26 04:39:29;;;;;;;3.55;2.22;;;;;;;;;;5004998;28;20506;-60
2023/05/26 04:41:54;;;;;;;3.73;2.47;;;;;;;;;;5005340;28;20048;-60
2023/05/26 04:44:19;;;;;;;4.43;1.90;;;;;;;;;;5004912;28;20050;-61
2023/05/26 04:46:45;;;;;;;3.00;2.05;;;;;;;;;;5004166;28;20849;-61
2023/05/26 04:49:12;;;;;;;2.97;2.00;;;;;;;;;;5005083;28;20056;-61
2023/05/26 04:51:37;;;;;;;3.30;2.50;;;;;;;;;;5002463;28;20117;-61
2023/05/26 04:54:03;;;;;;;3.35;2.38;;;;;;;;;;5004887;28;20187;-61
2023/05/26 04:56:28;;;;;;;3.28;2.20;;;;;;;;;;5004951;28;20045;-61
2023/05/26 04:58:53;;;;;;;3.80;2.50;;;;;;;;;;5004526;28;20038;-62
2023/05/26 05:01:19;;;;;;;3.60;2.30;;;;;;;;;;5004363;28;20325;-60
2023/05/26 05:03:44;;;;;;;3.37;2.07;;;;;;;;;;5002954;28;20042;-60
2023/05/26 05:06:10;;;;;;;2.70;2.30;;;;;;;;;;5004972;28;20281;-60
2023/05/26 05:08:36;;;;;;;2.90;2.30;;;;;;;;;;5004861;28;20283;-61
2023/05/26 05:11:02;;;;;;;4.32;2.20;;;;;;;;;;5004607;28;20037;-61
2023/05/26 05:13:27;;;;;;;3.90;2.35;;;;;;;;;;5004195;28;20030;-60
2023/05/26 05:15:53;;;;;;;4.67;2.43;;;;;;;;;;5019652;28;20076;-61
2023/05/26 05:18:18;;;;;;;7.10;2.27;;;;;;;;;;5004530;28;20806;-61
2023/05/26 05:20:43;;;;;;;5.23;2.40;;;;;;;;;;5001165;28;20042;-59
2023/05/26 05:23:08;;;;;;;3.38;2.10;;;;;;;;;;5004545;28;20855;-60
2023/05/26 05:25:34;;;;;;;4.93;2.23;;;;;;;;;;5004345;28;20057;-60
2023/05/26 05:27:59;;;;;;;2.88;2.25;;;;;;;;;;5003726;28;20277;-60
2023/05/26 05:30:25;;;;;;;3.92;2.22;;;;;;;;;;5004569;28;20038;-60
2023/05/26 05:32:50;;;;;;;4.60;2.20;;;;;;;;;;5004310;28;20091;-59
2023/05/26 05:35:15;;;;;;;2.92;2.30;;;;;;;;;;5005137;28;20500;-59
2023/05/26 05:37:41;;;;;;;4.63;2.27;;;;;;;;;;5007086;28;20470;-60
2023/05/26 05:40:06;;;;;;;5.43;2.08;;;;;;;;;;5010165;28;20113;-62
2023/05/26 05:42:32;;;;;;;3.60;2.40;;;;;;;;;;5004441;28;20038;-61
2023/05/26 05:44:57;;;;;;;6.03;2.33;;;;;;;;;;5003843;28;20080;-61
2023/05/26 05:47:22;;;;;;;4.83;2.60;;;;;;;;;;5000190;28;20038;-62
2023/05/26 05:49:47;;;;;;;5.03;2.30;;;;;;;;;;4996858;28;20036;-60
2023/05/26 05:52:14;;;;;;;4.90;2.60;;;;;;;;;;5004393;28;20363;-60
2023/05/26 05:54:39;;;;;;;4.68;2.50;;;;;;;;;;5003138;28;20145;-59
2023/05/26 05:57:05;;;;;;;3.85;2.50;;;;;;;;;;5003843;28;20547;-60
2023/05/26 05:59:30;;;;;;;4.57;2.90;;;;;;;;;;5005753;28;20045;-61
2023/05/26 06:01:55;;;;;;;5.78;2.40;;;;;;;;;;5007610;28;20040;-60
2023/05/26 06:04:20;;;;;;;4.03;2.20;;;;;;;;;;5007666;28;20058;-61
2023/05/26 06:06:46;;;;;;;4.60;2.30;;;;;;;;;;5007051;28;20367;-61
2023/05/26 06:09:11;;;;;;;3.90;2.13;;;;;;;;;;5006257;28;20277;-61
2023/05/26 06:11:36;;;;;;;2.92;2.30;;;;;;;;;;5006387;28;20045;-60
2023/05/26 06:14:02;;;;;;;4.15;2.13;;;;;;;;;;5007484;28;20124;-62
2023/05/26 06:16:27;;;;;;;6.00;2.40;;;;;;;;;;5007454;28;20034;-61
2023/05/26 06:18:52;;;;;;;3.07;2.07;;;;;;;;;;5007205;28;20304;-62
2023/05/26 06:21:17;;;;;;;3.97;2.10;;;;;;;;;;5007434;28;20762;-59
2023/05/26 06:23:43;;;;;;;4.90;2.22;;;;;;;;;;5022915;28;20832;-61
2023/05/26 06:26:08;;;;;;;5.67;2.27;;;;;;;;;;5007028;28;20049;-60
2023/05/26 06:28:33;;;;;;;3.23;2.20;;;;;;;;;;5006279;28;20030;-60
2023/05/26 06:30:58;;;;;;;5.20;2.50;;;;;;;;;;5004484;28;20307;-60
2023/05/26 06:33:23;;;;;;;3.57;2.57;;;;;;;;;;5007347;28;20065;-59
2023/05/26 06:35:49;;;;;;;4.47;2.20;;;;;;;;;;5007489;28;20052;-59
2023/05/26 06:38:14;;;;;;;4.68;2.40;;;;;;;;;;5007176;28;20050;-59
2023/05/26 06:40:39;;;;;;;3.55;2.78;;;;;;;;;;5006918;28;20034;-59
2023/05/26 06:43:04;;;;;;;3.53;2.17;;;;;;;;;;5007333;28;20044;-60
2023/05/26 06:45:30;;;;;;;3.20;2.40;;;;;;;;;;5007139;28;20062;-59
2023/05/26 06:47:55;;;;;;;4.40;2.70;;;;;;;;;;5005280;28;20030;-60
2023/05/26 06:50:20;;;;;;;4.90;2.63;;;;;;;;;;5005719;28;20387;-62
2023/05/26 06:52:46;;;;;;;4.15;3.20;;;;;;;;;;5007883;28;20464;-59
2023/05/26 06:55:11;;;;;;;5.20;2.55;;;;;;;;;;5007151;28;20524;-61
2023/05/26 06:57:36;;;;;;;6.60;2.92;;;;;;;;;;5007047;28;20045;-60
2023/05/26 07:00:02;;;;;;;3.13;2.27;;;;;;;;;;5006696;28;20046;-60
2023/05/26 07:02:27;;;;;;;5.15;2.97;;;;;;;;;;5006247;28;20680;-60
2023/05/26 07:04:53;;;;;;;3.30;2.77;;;;;;;;;;5002321;28;20054;-61
2023/05/26 07:07:18;;;;;;;4.53;2.83;;;;;;;;;;5016035;28;20273;-61
2023/05/26 07:09:43;;;;;;;5.13;2.80;;;;;;;;;;5003773;28;20656;-62
2023/05/26 07:12:09;;;;;;;4.17;2.87;;;;;;;;;;5005650;28;20561;-61
2023/05/26 07:14:34;;;;;;;4.05;3.03;;;;;;;;;;5006275;28;20144;-61
2023/05/26 07:16:59;;;;;;;5.33;3.00;;;;;;;;;;5010314;28;20412;-60
2023/05/26 07:19:25;;;;;;;4.83;2.90;;;;;;;;;;5006161;28;20281;-61
2023/05/26 07:21:50;;;;;;;4.80;3.03;;;;;;;;;;5004755;28;20288;-60
2023/05/26 07:24:15;;;;;;;4.80;3.10;;;;;;;;;;5006139;28;20301;-60
2023/05/26 07:26:40;;;;;;;4.35;3.03;;;;;;;;;;5004833;28;20045;-59
2023/05/26 07:29:06;;;;;;;4.17;2.90;;;;;;;;;;4998289;28;20041;-60
2023/05/26 07:31:31;;;;;;;6.37;3.00;;;;;;;;;;5000525;28;20139;-62
2023/05/26 07:33:56;;;;;;;5.68;3.15;;;;;;;;;;5013707;28;20283;-58
2023/05/26 07:36:21;;;;;;;4.17;2.70;;;;;;;;;;5004951;28;20471;-58
2023/05/26 07:38:47;;;;;;;4.57;2.63;;;;;;;;;;5004098;28;20319;-60
2023/05/26 07:41:12;;;;;;;6.17;2.80;;;;;;;;;;4999043;28;20120;-60
2023/05/26 07:43:37;;;;;;;4.40;2.50;;;;;;;;;;5000884;28;20104;-60
2023/05/26 07:46:02;;;;;;;4.13;2.70;;;;;;;;;;5000444;28;20285;-60
2023/05/26 07:48:27;;;;;;;4.30;3.10;;;;;;;;;;5001875;28;20045;-59
2023/05/26 07:50:53;;;;;;;5.00;3.40;;;;;;;;;;4994138;28;20284;-59
2023/05/26 07:53:18;;;;;;;6.77;3.07;;;;;;;;;;4996469;28;20043;-61
2023/05/26 07:55:44;;;;;;;4.38;2.80;;;;;;;;;;4993188;28;20675;-59
2023/05/26 07:58:12;;;;;;;5.13;2.80;;;;;;;;;;5008124;28;20161;-60
2023/05/26 08:00:37;;;;;;;4.57;2.70;;;;;;;;;;5007262;28;20038;-61
2023/05/26 08:03:02;;;;;;;4.40;2.90;;;;;;;;;;5003945;28;20061;-60
2023/05/26 08:05:28;;;;;;;6.93;3.05;;;;;;;;;;5003827;28;20049;-60
2023/05/26 08:07:53;;;;;;;5.65;3.10;;;;;;;;;;5011752;28;20077;-61
2023/05/26 08:10:18;;;;;;;6.67;3.33;;;;;;;;;;4999235;28;20497;-61
2023/05/26 08:12:44;;;;;;;5.63;2.57;;;;;;;;;;5000066;28;20288;-58
2023/05/26 08:15:13;;;;;;;5.53;3.03;;;;;;;;;;5001067;28;20280;-59
2023/05/26 08:17:38;;;;;;;5.68;2.80;;;;;;;;;;4999958;28;20124;-61
2023/05/26 08:20:03;;;;;;;5.10;3.10;;;;;;;;;;5001216;28;20619;-61
2023/05/26 08:22:29;;;;;;;3.22;2.08;;;;;;;;;;5003046;28;20553;-60
2023/05/26 08:24:54;;;;;;;4.43;2.50;;;;;;;;;;4999714;28;20046;-60
2023/05/26 08:27:20;;;;;;;3.30;1.95;;;;;;;;;;5004732;28;20034;-60
2023/05/26 08:29:45;;;;;;;3.25;2.00;;;;;;;;;;5004501;28;20038;-60
2023/05/26 08:32:10;;;;;;;4.33;2.30;;;;;;;;;;4997177;28;20448;-60
2023/05/26 08:34:35;;;;;;;7.25;2.88;;;;;;;;;;5002843;28;20495;-57
2023/05/26 08:37:01;;;;;;;3.90;2.30;;;;;;;;;;5001703;28;20042;-59
2023/05/26 08:39:26;;;;;;;5.38;2.20;;;;;;;;;;4995213;28;20026;-59
2023/05/26 08:41:52;;;;;;;5.67;2.20;;;;;;;;;;5004178;28;20568;-60
2023/05/26 08:44:18;;;;;;;4.05;2.13;;;;;;;;;;5004345;28;20049;-60
2023/05/26 08:46:43;;;;;;;3.47;2.50;;;;;;;;;;5002885;28;20064;-58
2023/05/26 08:49:09;;;;;;;3.58;2.60;;;;;;;;;;4994280;28;20026;-62
2023/05/26 08:51:36;;;;;;;4.32;2.50;;;;;;;;;;5008533;28;20380;-59
2023/05/26 08:54:01;;;;;;;3.22;2.42;;;;;;;;;;4999947;28;20014;-59
2023/05/26 08:56:26;;;;;;;4.55;2.20;;;;;;;;;;4989410;28;20121;-61
2023/05/26 08:58:51;;;;;;;4.40;2.60;;;;;;;;;;4999402;28;20033;-60
2023/05/26 09:01:17;;;;;;;4.20;2.73;;;;;;;;;;5008771;28;20307;-59
2023/05/26 09:03:42;;;;;;;2.87;2.20;;;;;;;;;;4996483;28;20014;-61
2023/05/26 09:06:07;;;;;;;3.67;2.67;;;;;;;;;;4997969;28;20260;-61
2023/05/26 09:08:32;;;;;;;4.57;2.20;;;;;;;;;;4995608;28;20264;-61
2023/05/26 09:10:57;;;;;;;4.47;2.53;;;;;;;;;;5001848;28;20370;-60
2023/05/26 09:13:23;;;;;;;4.87;2.90;;;;;;;;;;5002351;28;20288;-61
2023/05/26 09:15:54;;;;;;;6.43;2.93;;;;;;;;;;4997977;28;20884;-60
2023/05/26 09:18:19;;;;;;;4.43;3.05;;;;;;;;;;5000783;28;20276;-59
2023/05/26 09:20:46;;;;;;;2.65;2.35;;;;;;;;;;4991803;28;20484;-59
2023/05/26 09:23:11;;;;;;;3.88;2.40;;;;;;;;;;4993586;28;20112;-61
2023/05/26 09:25:37;;;;;;;4.97;2.58;;;;;;;;;;4995943;28;20191;-59
2023/05/26 09:28:06;;;;;;;5.97;2.80;;;;;;;;;;5019413;28;20018;-61
2023/05/26 09:30:57;;;;;;;4.40;3.03;;;;;;;;;;5004620;28;20115;-61
2023/05/26 09:33:22;;;;;;;3.60;2.00;;;;;;;;;;5005532;28;20029;-62
2023/05/26 09:35:48;;;;;;;3.07;2.20;;;;;;;;;;5008809;28;20439;-61
2023/05/26 09:38:17;;;;;;;5.22;2.20;;;;;;;;;;5007094;28;20414;-61
2023/05/26 09:40:42;;;;;;;3.75;2.17;;;;;;;;;;5008363;28;20455;-62
2023/05/26 09:43:07;;;;;;;2.93;2.40;;;;;;;;;;5008583;28;20053;-60
2023/05/26 09:45:36;;;;;;;3.88;2.15;;;;;;;;;;5008006;28;20746;-61
2023/05/26 09:48:02;;;;;;;3.40;2.33;;;;;;;;;;5008352;28;20439;-61
2023/05/26 09:50:29;;;;;;;3.35;2.30;;;;;;;;;;5021437;28;20120;-60
2023/05/26 09:52:54;;;;;;;3.10;2.28;;;;;;;;;;5014883;28;20037;-61
2023/05/26 09:55:19;;;;;;;4.03;2.07;;;;;;;;;;5005898;28;20034;-61
2023/05/26 09:57:48;;;;;;;2.40;2.07;;;;;;;;;;5017911;28;20292;-60
2023/05/26 10:00:17;;;;;;;3.35;2.08;;;;;;;;;;5007705;28;20038;-60
2023/05/26 10:02:43;;;;;;;3.80;2.22;;;;;;;;;;5004174;28;20069;-60
2023/05/26 10:05:08;;;;;;;2.92;2.17;;;;;;;;;;5007744;28;20176;-61
2023/05/26 10:07:33;;;;;;;3.75;2.30;;;;;;;;;;5005131;28;20054;-60
2023/05/26 10:09:59;;;;;;;2.92;2.15;;;;;;;;;;5007890;28;20034;-59
2023/05/26 10:12:31;;;;;;;4.85;2.50;;;;;;;;;;5003709;28;20626;-60
2023/05/26 10:14:57;;;;;;;4.40;2.60;;;;;;;;;;5006006;28;20044;-60
2023/05/26 10:17:22;;;;;;;4.40;2.60;;;;;;;;;;5007416;28;20038;-60
2023/05/26 10:19:47;;;;;;;5.22;2.70;;;;;;;;;;5007427;28;20293;-61
2023/05/26 10:22:30;;;;;;;4.28;2.95;;;;;;;;;;5007873;28;20431;-61
2023/05/26 10:24:58;;;;;;;3.00;2.70;;;;;;;;;;5004885;28;20074;-61
2023/05/26 10:27:28;;;;;;;3.80;2.58;;;;;;;;;;5005691;28;20489;-60
2023/05/26 10:30:05;;;;;;;4.88;3.00;;;;;;;;;;5005556;28;20042;-60
2023/05/26 10:32:42;;;;;;;3.95;3.00;;;;;;;;;;5004975;28;20042;-61
2023/05/26 10:35:28;;;;;;;3.92;2.75;;;;;;;;;;5007093;28;20146;-60
2023/05/26 10:37:54;;;;;;;3.47;2.58;;;;;;;;;;5017774;28;20472;-61
2023/05/26 10:40:57;;;;;;;3.95;2.60;;;;;;;;;;5003427;28;20022;-60
2023/05/26 10:43:23;;;;;;;4.18;2.63;;;;;;;;;;4980929;28;20142;-62
2023/05/26 10:45:54;;;;;;;3.40;2.50;;;;;;;;;;4983462;28;20148;-60
2023/05/26 10:48:19;;;;;;;3.72;2.20;;;;;;;;;;4995232;28;20316;-61
2023/05/26 10:50:59;;;;;;;3.10;2.40;;;;;;;;;;5006959;28;20503;-60
2023/05/26 10:53:34;;;;;;;4.03;2.42;;;;;;;;;;5006917;28;20060;-60
2023/05/26 10:56:02;;;;;;;3.78;2.45;;;;;;;;;;5007035;28;20038;-60
2023/05/26 10:58:41;;;;;;;4.18;2.53;;;;;;;;;;5005208;28;20121;-61
2023/05/26 11:01:09;;;;;;;4.38;2.45;;;;;;;;;;5007614;28;20037;-61
2023/05/26 11:03:37;;;;;;;4.53;2.65;;;;;;;;;;5000792;28;20042;-58
2023/05/26 11:06:03;;;;;;;4.60;3.03;;;;;;;;;;5004215;28;20108;-61
2023/05/26 11:08:44;;;;;;;3.47;2.88;;;;;;;;;;5017069;28;20376;-60
2023/05/26 11:11:10;;;;;;;5.10;2.70;;;;;;;;;;4992793;28;20038;-59
2023/05/26 11:13:39;;;;;;;3.70;2.70;;;;;;;;;;5006293;28;20038;-61
2023/05/26 11:16:12;;;;;;;4.35;2.78;;;;;;;;;;5005603;28;20038;-58
2023/05/26 11:18:38;;;;;;;4.38;2.80;;;;;;;;;;5005660;28;20045;-62
2023/05/26 11:21:04;;;;;;;6.47;2.90;;;;;;;;;;5006304;28;20091;-62
2023/05/26 11:23:29;;;;;;;4.18;2.70;;;;;;;;;;5006826;28;20125;-61
2023/05/26 11:25:55;;;;;;;4.67;2.70;;;;;;;;;;5004390;28;20484;-59
2023/05/26 11:28:21;;;;;;;3.37;2.53;;;;;;;;;;5005336;28;20105;-60
2023/05/26 11:30:46;;;;;;;3.40;2.42;;;;;;;;;;5005696;28;20072;-61
2023/05/26 11:33:15;;;;;;;5.73;2.40;;;;;;;;;;5005605;28;20030;-61
2023/05/26 11:35:40;;;;;;;5.88;2.88;;;;;;;;;;5018108;28;20037;-59
2023/05/26 11:38:05;;;;;;;4.20;2.60;;;;;;;;;;5002725;28;20126;-61
2023/05/26 11:40:32;;;;;;;3.92;2.42;;;;;;;;;;5006078;28;20164;-61
2023/05/26 11:42:57;;;;;;;4.30;2.60;;;;;;;;;;5004470;28;20038;-61
2023/05/26 11:45:22;;;;;;;2.67;2.20;;;;;;;;;;5004529;28;20058;-61
2023/05/26 11:47:48;;;;;;;3.88;2.17;;;;;;;;;;5006573;28;20133;-60
2023/05/26 11:50:13;;;;;;;2.88;2.30;;;;;;;;;;5006119;28;20119;-61
2023/05/26 11:52:42;;;;;;;3.40;2.15;;;;;;;;;;5002253;28;20485;-60
2023/05/26 11:55:09;;;;;;;3.42;2.33;;;;;;;;;;5005962;28;20042;-60
2023/05/26 11:57:36;;;;;;;3.40;2.28;;;;;;;;;;5006357;28;20053;-59
2023/05/26 12:00:09;;;;;;;2.90;2.20;;;;;;;;;;5004304;28;20056;-60
2023/05/26 12:02:34;;;;;;;3.67;2.20;;;;;;;;;;5004633;28;20046;-60
2023/05/26 12:04:59;;;;;;;3.05;2.40;;;;;;;;;;5005005;28;20040;-58
2023/05/26 12:07:30;;;;;;;4.00;2.13;;;;;;;;;;5005859;28;20114;-59
2023/05/26 12:10:21;;;;;;;3.20;2.17;;;;;;;;;;5003480;28;20312;-61
2023/05/26 12:12:47;;;;;;;3.88;2.10;;;;;;;;;;5002938;28;20037;-61
2023/05/26 12:15:13;;;;;;;4.40;2.28;;;;;;;;;;5004045;28;20037;-62
2023/05/26 12:17:38;;;;;;;3.33;2.20;;;;;;;;;;5003380;28;20475;-61
2023/05/26 12:20:05;;;;;;;3.07;2.20;;;;;;;;;;5006114;28;20034;-61
2023/05/26 12:22:30;;;;;;;4.35;2.28;;;;;;;;;;5005283;28;20119;-62
2023/05/26 12:24:59;;;;;;;5.63;2.65;;;;;;;;;;5001736;28;20074;-60
2023/05/26 12:27:33;;;;;;;4.10;2.28;;;;;;;;;;4999731;28;20415;-59
2023/05/26 12:29:58;;;;;;;5.22;2.58;;;;;;;;;;4993446;28;20115;-59
2023/05/26 12:32:23;;;;;;;4.70;2.40;;;;;;;;;;5004335;28;20429;-60
2023/05/26 12:34:48;;;;;;;5.63;2.70;;;;;;;;;;5003658;28;20530;-60
2023/05/26 12:37:15;;;;;;;4.47;2.42;;;;;;;;;;5004774;28;20153;-61
2023/05/26 12:39:40;;;;;;;3.73;2.90;;;;;;;;;;5005487;28;20424;-60
2023/05/26 12:42:05;;;;;;;3.77;2.80;;;;;;;;;;5003366;28;20316;-59
2023/05/26 12:44:31;;;;;;;5.38;2.80;;;;;;;;;;5005326;28;20069;-60
2023/05/26 12:46:56;;;;;;;3.58;2.63;;;;;;;;;;5005115;28;20438;-61
2023/05/26 12:49:21;;;;;;;5.73;3.10;;;;;;;;;;5015076;28;20030;-61
2023/05/26 12:51:47;;;;;;;4.00;2.50;;;;;;;;;;5005089;28;20275;-61
2023/05/26 12:54:12;;;;;;;6.05;3.13;;;;;;;;;;5005637;28;20117;-61
2023/05/26 12:56:37;;;;;;;5.03;2.90;;;;;;;;;;5005122;28;20563;-61
2023/05/26 12:59:03;;;;;;;4.77;2.80;;;;;;;;;;5004898;28;20273;-59
2023/05/26 13:01:28;;;;;;;4.13;2.80;;;;;;;;;;5000056;28;20270;-61
2023/05/26 13:03:53;;;;;;;4.80;3.05;;;;;;;;;;5003939;28;20284;-61
2023/05/26 13:06:18;;;;;;;6.33;3.00;;;;;;;;;;5012474;28;20578;-61
2023/05/26 13:08:44;;;;;;;6.33;3.20;;;;;;;;;;5011272;28;20049;-59
2023/05/26 13:11:10;;;;;;;6.30;3.17;;;;;;;;;;5009849;28;20053;-61
2023/05/26 13:13:35;;;;;;;4.32;2.60;;;;;;;;;;5009455;28;20389;-59
2023/05/26 13:16:00;;;;;;;5.63;3.10;;;;;;;;;;5006367;28;20074;-61
2023/05/26 13:18:26;;;;;;;3.83;2.87;;;;;;;;;;5009139;28;20425;-59
2023/05/26 13:20:51;;;;;;;4.35;3.17;;;;;;;;;;5008534;28;20285;-58
2023/05/26 13:23:16;;;;;;;6.10;2.60;;;;;;;;;;5004177;28;20151;-59
2023/05/26 13:25:41;;;;;;;6.90;3.20;;;;;;;;;;5005312;28;20304;-60
2023/05/26 13:28:07;;;;;;;6.17;3.03;;;;;;;;;;5006944;28;20128;-60
2023/05/26 13:30:32;;;;;;;5.30;3.30;;;;;;;;;;5007587;28;20535;-59
2023/05/26 13:32:57;;;;;;;5.20;2.88;;;;;;;;;;5005788;28;20068;-58
2023/05/26 13:35:23;;;;;;;8.07;3.10;;;;;;;;;;4999691;28;20073;-60
2023/05/26 13:37:48;;;;;;;3.85;2.88;;;;;;;;;;4993676;28;20164;-60
2023/05/26 13:40:13;;;;;;;5.28;3.10;;;;;;;;;;4993503;28;20046;-59
2023/05/26 13:42:39;;;;;;;6.05;3.10;;;;;;;;;;4991885;28;20472;-60
2023/05/26 13:45:05;;;;;;;5.40;3.10;;;;;;;;;;4999615;28;20053;-60
2023/05/26 13:47:30;;;;;;;5.78;3.22;;;;;;;;;;4992583;28;20285;-61
2023/05/26 13:49:56;;;;;;;5.20;3.50;;;;;;;;;;4992265;28;20057;-60
2023/05/26 13:52:21;;;;;;;4.90;3.03;;;;;;;;;;4992336;28;20034;-60
2023/05/26 13:54:46;;;;;;;5.67;3.13;;;;;;;;;;4993326;28;20033;-64
2023/05/26 13:57:12;;;;;;;6.33;2.93;;;;;;;;;;4994364;28;20060;-59
2023/05/26 13:59:37;;;;;;;5.65;3.33;;;;;;;;;;4992565;28;20358;-60
2023/05/26 14:02:02;;;;;;;4.60;3.20;;;;;;;;;;4993377;28;20419;-61
2023/05/26 14:04:27;;;;;;;4.63;2.93;;;;;;;;;;4992029;28;20728;-60
2023/05/26 14:06:53;;;;;;;6.10;2.70;;;;;;;;;;4990060;28;20408;-61
2023/05/26 14:09:18;;;;;;;4.68;2.63;;;;;;;;;;4992140;28;20403;-60
2023/05/26 14:11:43;;;;;;;4.60;3.00;;;;;;;;;;4991337;28;20045;-60
2023/05/26 14:14:08;;;;;;;3.53;2.90;;;;;;;;;;4992829;28;20865;-61
2023/05/26 14:16:33;;;;;;;7.80;3.40;;;;;;;;;;4992889;28;20712;-62
2023/05/26 14:18:59;;;;;;;3.85;2.95;;;;;;;;;;4989305;28;20463;-61
2023/05/26 14:21:25;;;;;;;3.65;2.78;;;;;;;;;;4989134;28;20560;-61
2023/05/26 14:23:50;;;;;;;4.63;2.70;;;;;;;;;;5005342;28;20447;-61
2023/05/26 14:26:16;;;;;;;3.77;2.50;;;;;;;;;;4990799;28;20285;-59
2023/05/26 14:28:42;;;;;;;4.30;2.67;;;;;;;;;;4989065;28;20037;-60
2023/05/26 14:31:07;;;;;;;4.05;2.97;;;;;;;;;;4978613;28;20050;-60
2023/05/26 14:33:32;;;;;;;5.27;2.60;;;;;;;;;;4988803;28;20038;-60
2023/05/26 14:35:57;;;;;;;4.63;2.53;;;;;;;;;;4991380;28;20069;-61
2023/05/26 14:38:22;;;;;;;4.05;3.00;;;;;;;;;;5006115;28;20034;-63